Pagrindinis puslapis
METAR-TAF:

METAR-TAF

Oro uostai :

Rojetas, Tailandas

platuma: 16-07-00N, ilguma: 103-46-26E, Aukštis: 138 m

Dabartinis oras

Ataskaita buvo paskelbta 39 minutes, ne 04:00 UTC
Vėjas 5 kt iš Pietvakarių, svyruoja nuo Pietų ir Vakarų/Pietvakarių
Temperatūra 29°C
Drėgmė 74%
Slėgis 1009 hPa
Matomumas 10 km arba daugiau
Su prošvaistėmis ne aukštis 2500 ft

METAR: VTUV 140400Z 22005KT 180V250 9999 BKN025 29/24 Q1009 NOSIG

Laikas: 11:39 (04:39 UTC)

Prognozė

Ataskaita buvo paskelbta 5 valandos ir 39 minutes, ne 23:00 UTC
Prognozė galioja nuo 14 metu 00 UTC su 14 metu 24 UTC
Vėjas 5 kt iš Pietų
Matomumas 10 km arba daugiau
Išsisklaidę debesys ne aukštis 3000 ft
Laikinai
nuo 14 metu 07 UTC su 14 metu 10 UTC
Vėjas 15 kt nuo kintamojo kryptimis
Matomumas: 4500 m
Mažai debesys ne aukštis 1800 ft, Liūtiniai kamuoliniai debesys.
Su prošvaistėmis ne aukštis 2500 ft
perkūnija, lietus

TAF: VTUV 132300Z 1400/1424 18005KT 9999 SCT030 TEMPO 1407/1410 VRB15KT 4500 TSRA FEW018CB BKN025

Orai ataskaitas ir orų prognozės (METAR, TAF).

turimą stotys yra geltonos ir raudonos taškus žemėlapyje.

Perkelti pele per norėdami pamatyti stoties vardą.

Tada spustelėkite, norėdami matyti oro stebėjimo ir prognozės.

Norėdami pakeisti žemėlapį: spustelėkite ant žalios mygtukų su juodo kryžiaus žemyn,; žalią mygtuką su brūkšneliu, jei norite nutolinti; arba žalių rodyklių gretimoms žemėlapius.


METAR-TAF: